Time;durP1;ratioP1;P1;durP2;ratioP2;P2;SDS_P1;SDS_P2;PMS_P1;PMS_P2;Temp;Humidity;BMP_temperature;BMP_pressure;BME280_temperature;BME280_humidity;BME280_pressure;Samples;Min_cycle;Max_cycle;Signal;HPM_P1;HPM_P2
2022/03/05 00:02:15;;;;;;;22.90;10.63;;;;;;;4.89;51.01;100336.25;5028098;28;20056;-81
2022/03/05 00:04:42;;;;;;;24.70;11.43;;;;;;;4.88;50.96;100339.81;4991074;28;20037;-81
2022/03/05 00:07:09;;;;;;;25.17;10.18;;;;;;;4.88;50.97;100332.75;5021686;28;20134;-81
2022/03/05 00:09:36;;;;;;;24.20;10.57;;;;;;;4.88;51.27;100327.47;5010345;28;20045;-81
2022/03/05 00:12:03;;;;;;;22.10;10.77;;;;;;;4.88;51.04;100338.00;4993260;28;20049;-81
2022/03/05 00:14:30;;;;;;;23.48;10.90;;;;;;;4.88;51.17;100332.75;4990749;28;20801;-82
2022/03/05 00:16:57;;;;;;;20.20;9.65;;;;;;;4.87;51.12;100325.81;4956710;28;20045;-80
2022/03/05 00:19:24;;;;;;;20.52;10.07;;;;;;;4.76;51.29;100330.84;4983300;28;20053;-81
2022/03/05 00:21:54;;;;;;;21.00;9.93;;;;;;;4.74;51.37;100332.69;5004920;28;20048;-81
2022/03/05 00:24:22;;;;;;;25.23;11.18;;;;;;;4.75;51.47;100331.75;4993568;28;20075;-80
2022/03/05 00:26:48;;;;;;;22.77;10.40;;;;;;;4.75;51.18;100329.13;4962235;28;20049;-81
2022/03/05 00:29:15;;;;;;;22.88;10.27;;;;;;;4.69;51.45;100332.97;5012220;28;20112;-82
2022/03/05 00:31:43;;;;;;;23.90;10.25;;;;;;;4.69;51.42;100332.13;4974323;28;20049;-81
2022/03/05 00:34:10;;;;;;;24.23;11.13;;;;;;;4.68;51.39;100335.66;4995832;28;20042;-81
2022/03/05 00:36:38;;;;;;;29.23;11.38;;;;;;;4.66;51.52;100334.91;4984317;28;20191;-81
2022/03/05 00:39:05;;;;;;;21.35;10.07;;;;;;;4.65;51.29;100328.78;4987259;28;20038;-81
2022/03/05 00:41:32;;;;;;;23.60;10.65;;;;;;;4.64;51.26;100331.53;4977078;28;20038;-81
2022/03/05 00:43:59;;;;;;;25.75;11.70;;;;;;;4.60;51.37;100332.63;4991684;28;20046;-80
2022/03/05 00:46:25;;;;;;;28.35;11.05;;;;;;;4.57;51.61;100334.47;4959867;28;20046;-80
2022/03/05 00:48:53;;;;;;;23.10;10.75;;;;;;;4.59;51.52;100338.81;4991261;28;20076;-81
2022/03/05 00:51:19;;;;;;;24.40;10.48;;;;;;;4.56;51.50;100331.94;4969293;28;20132;-81
2022/03/05 00:53:46;;;;;;;22.77;9.90;;;;;;;4.54;51.75;100336.44;4981613;28;20042;-81
2022/03/05 00:56:15;;;;;;;25.00;9.73;;;;;;;4.51;51.50;100339.25;5024488;28;20127;-81
2022/03/05 00:58:42;;;;;;;25.25;10.93;;;;;;;4.48;51.74;100327.13;5024763;28;20078;-81
2022/03/05 01:01:09;;;;;;;21.58;10.45;;;;;;;4.45;52.12;100332.56;5019518;28;20492;-81
2022/03/05 01:03:36;;;;;;;24.75;10.48;;;;;;;4.45;52.07;100331.69;5016157;28;20403;-80
2022/03/05 01:06:04;;;;;;;20.55;9.82;;;;;;;4.43;51.68;100331.78;5005183;28;20045;-80
2022/03/05 01:08:33;;;;;;;22.85;10.07;;;;;;;4.43;51.86;100323.06;5029713;28;20512;-81
2022/03/05 01:11:00;;;;;;;22.85;9.70;;;;;;;4.42;51.91;100332.69;5000196;28;20159;-81
2022/03/05 01:13:27;;;;;;;24.35;10.63;;;;;;;4.42;51.84;100331.84;5031650;28;20157;-81
2022/03/05 01:15:54;;;;;;;25.00;10.63;;;;;;;4.39;52.19;100327.59;5020710;28;20044;-81
2022/03/05 01:18:22;;;;;;;21.92;9.55;;;;;;;4.40;52.06;100331.97;5025837;28;20125;-81
2022/03/05 01:20:49;;;;;;;21.38;9.90;;;;;;;4.35;52.08;100329.56;5018096;28;20049;-81
2022/03/05 01:23:15;;;;;;;21.65;10.40;;;;;;;4.34;52.25;100333.13;5030160;28;20048;-80
2022/03/05 01:25:42;;;;;;;23.05;10.40;;;;;;;4.35;52.05;100326.06;5001023;28;20056;-82
2022/03/05 01:28:09;;;;;;;23.00;10.43;;;;;;;4.35;52.11;100332.19;5008969;28;20045;-81
2022/03/05 01:30:36;;;;;;;24.35;10.95;;;;;;;4.30;52.11;100328.97;5015741;28;20041;-81
2022/03/05 01:33:03;;;;;;;21.80;10.05;;;;;;;4.26;52.18;100326.59;5016945;28;20036;-81
2022/03/05 01:35:29;;;;;;;25.77;10.77;;;;;;;4.22;52.24;100319.78;5022387;28;20544;-81
2022/03/05 01:37:56;;;;;;;26.27;9.77;;;;;;;4.20;52.33;100313.75;5014138;28;20037;-81
2022/03/05 01:40:23;;;;;;;24.55;10.38;;;;;;;4.20;52.48;100312.00;5005512;28;20052;-81
2022/03/05 01:42:50;;;;;;;22.77;10.38;;;;;;;4.20;52.51;100311.13;5010362;28;20059;-81
2022/03/05 01:45:17;;;;;;;21.33;10.05;;;;;;;4.18;52.74;100307.78;5017430;28;20052;-81
2022/03/05 01:47:45;;;;;;;25.05;10.93;;;;;;;4.18;52.75;100313.88;5008576;28;20487;-80
2022/03/05 01:50:12;;;;;;;25.10;11.30;;;;;;;4.18;52.52;100313.88;4986615;28;20072;-81
2022/03/05 01:52:39;;;;;;;22.50;10.88;;;;;;;4.17;52.78;100311.31;5035945;28;20068;-81
2022/03/05 01:55:06;;;;;;;21.67;10.85;;;;;;;4.17;52.71;100313.94;5015434;28;20049;-82
2022/03/05 01:57:34;;;;;;;23.38;10.30;;;;;;;4.20;52.41;100312.00;5009808;28;20536;-81
2022/03/05 02:00:01;;;;;;;22.30;10.13;;;;;;;3.97;52.99;100326.38;5010286;28;20045;-81
2022/03/05 02:02:38;;;;;;;22.77;10.80;;;;;;;3.98;52.90;100325.44;5016929;28;20650;-81
2022/03/05 02:05:05;;;;;;;26.20;10.68;;;;;;;3.94;52.84;100326.53;5016442;28;20068;-81
2022/03/05 02:07:32;;;;;;;21.25;9.60;;;;;;;3.92;53.04;100317.91;4990472;28;20399;-81
2022/03/05 02:09:59;;;;;;;27.15;11.02;;;;;;;3.85;53.00;100322.63;5021737;28;20044;-81
2022/03/05 02:12:33;;;;;;;21.63;9.70;;;;;;;3.81;53.30;100321.06;5032448;28;20710;-81
2022/03/05 02:15:01;;;;;;;23.65;10.20;;;;;;;3.82;53.54;100314.06;5013755;28;20040;-80
2022/03/05 02:17:28;;;;;;;22.13;10.23;;;;;;;3.84;53.24;100320.06;4993015;28;20496;-81
2022/03/05 02:19:56;;;;;;;26.40;10.48;;;;;;;3.85;53.57;100327.88;4998013;28;20502;-81
2022/03/05 02:22:24;;;;;;;26.05;11.15;;;;;;;3.84;53.39;100328.81;4991031;28;20045;-80
2022/03/05 02:24:53;;;;;;;24.10;10.68;;;;;;;3.84;53.31;100325.31;5007241;28;20065;-81
2022/03/05 02:27:21;;;;;;;21.52;10.15;;;;;;;3.86;53.58;100318.22;5005721;28;20048;-81
2022/03/05 02:29:49;;;;;;;29.67;12.05;;;;;;;3.86;53.72;100323.47;5017048;28;20056;-81
2022/03/05 02:32:15;;;;;;;25.85;11.52;;;;;;;3.80;53.52;100323.78;5022609;28;20048;-80
2022/03/05 02:34:43;;;;;;;21.25;10.57;;;;;;;3.77;53.68;100323.97;4990827;28;20061;-81
2022/03/05 02:37:15;;;;;;;26.88;11.15;;;;;;;3.76;53.73;100317.00;5025279;28;20045;-80
2022/03/05 02:39:43;;;;;;;24.75;10.15;;;;;;;3.73;54.09;100315.38;5018383;28;20056;-82
2022/03/05 02:42:10;;;;;;;24.52;11.25;;;;;;;3.75;53.78;100318.78;5007776;28;20050;-80
2022/03/05 02:44:37;;;;;;;25.80;11.20;;;;;;;3.74;53.74;100316.22;5019324;28;20128;-81
2022/03/05 02:47:05;;;;;;;20.02;10.63;;;;;;;3.68;53.61;100313.00;5028575;28;20052;-81
2022/03/05 02:49:31;;;;;;;23.48;10.85;;;;;;;3.66;53.64;100317.50;5005283;28;20037;-81
2022/03/05 02:51:58;;;;;;;27.33;11.13;;;;;;;3.66;53.97;100327.13;5031007;28;20095;-81
2022/03/05 02:54:25;;;;;;;22.63;10.48;;;;;;;3.64;53.75;100318.50;5012323;28;20048;-81
2022/03/05 02:56:52;;;;;;;25.30;11.80;;;;;;;3.60;53.79;100319.59;5015160;28;20111;-81
2022/03/05 02:59:18;;;;;;;23.65;10.95;;;;;;;3.57;53.93;100325.00;5011418;28;20049;-80
2022/03/05 03:01:46;;;;;;;29.27;12.20;;;;;;;3.57;54.02;100322.38;5020036;28;20052;-82
2022/03/05 03:04:13;;;;;;;23.58;12.70;;;;;;;3.57;54.21;100330.25;4994677;28;20101;-81
2022/03/05 03:06:40;;;;;;;21.30;10.90;;;;;;;3.55;54.09;100329.47;5034017;28;20098;-81
2022/03/05 03:09:07;;;;;;;26.77;10.80;;;;;;;3.55;53.93;100335.56;4994488;28;20049;-81
2022/03/05 03:11:34;;;;;;;23.65;10.55;;;;;;;3.54;53.91;100328.63;5032055;28;20116;-80
2022/03/05 03:14:01;;;;;;;20.30;11.13;;;;;;;3.57;54.07;100325.84;5036397;28;20110;-80
2022/03/05 03:16:30;;;;;;;28.08;12.32;;;;;;;3.53;54.20;100321.66;5003513;28;20047;-81
2022/03/05 03:18:57;;;;;;;21.58;11.45;;;;;;;3.50;54.17;100327.06;5019452;28;20428;-80
2022/03/05 03:21:24;;;;;;;23.13;10.75;;;;;;;3.52;54.55;100329.63;5010127;28;20091;-80
2022/03/05 03:23:51;;;;;;;23.65;11.40;;;;;;;3.50;54.21;100331.47;5022768;28;20052;-80
2022/03/05 03:26:17;;;;;;;25.20;11.50;;;;;;;3.48;54.41;100326.31;5023056;28;20784;-80
2022/03/05 03:28:44;;;;;;;22.75;11.07;;;;;;;3.46;54.40;100329.03;5028268;28;20048;-80
2022/03/05 03:31:11;;;;;;;24.08;11.15;;;;;;;3.45;54.62;100327.31;5024977;28;20048;-81
2022/03/05 03:33:38;;;;;;;24.77;11.43;;;;;;;3.44;54.38;100320.38;5007089;28;20041;-80
2022/03/05 03:36:05;;;;;;;26.65;11.25;;;;;;;3.43;54.42;100326.53;5021075;28;20540;-80
2022/03/05 03:38:31;;;;;;;22.50;10.35;;;;;;;3.44;54.41;100328.25;5034563;28;20048;-80
2022/03/05 03:40:58;;;;;;;28.90;11.68;;;;;;;3.42;54.71;100331.88;5020345;28;20141;-81
2022/03/05 03:43:25;;;;;;;24.80;11.57;;;;;;;3.39;54.36;100324.16;5023004;28;20529;-80
2022/03/05 03:45:52;;;;;;;20.92;10.43;;;;;;;3.37;54.67;100326.00;5010069;28;20060;-81
2022/03/05 03:48:18;;;;;;;26.77;12.73;;;;;;;3.37;54.77;100326.84;5005219;28;20041;-80
2022/03/05 03:50:45;;;;;;;26.73;11.90;;;;;;;3.38;54.59;100325.91;5020323;28;20044;-81
2022/03/05 03:53:12;;;;;;;23.08;11.48;;;;;;;3.34;54.81;100329.66;5027886;28;20033;-81
2022/03/05 03:55:39;;;;;;;22.70;11.23;;;;;;;3.34;54.73;100339.28;5021456;28;20076;-80
2022/03/05 03:58:06;;;;;;;27.15;11.75;;;;;;;3.29;54.99;100333.44;5022011;28;20557;-80
2022/03/05 04:00:32;;;;;;;25.45;11.18;;;;;;;3.31;55.03;100342.94;5003682;28;20052;-81
2022/03/05 04:02:59;;;;;;;23.60;11.90;;;;;;;3.30;54.79;100338.59;5021465;28;20461;-81
2022/03/05 04:05:26;;;;;;;24.08;11.68;;;;;;;3.30;55.01;100335.13;5008887;28;20110;-80
2022/03/05 04:10:39;;;;;;;23.23;11.77;;;;;;;3.26;54.92;100342.31;5000183;28;20052;-80
2022/03/05 04:13:05;;;;;;;28.40;12.18;;;;;;;3.27;54.50;100346.63;5009700;28;20055;-81
2022/03/05 04:15:32;;;;;;;21.00;10.40;;;;;;;3.25;54.79;100356.34;5011619;28;20037;-80
2022/03/05 04:17:59;;;;;;;28.33;12.70;;;;;;;3.23;55.02;100350.31;5026036;28;20055;-80
2022/03/05 04:20:27;;;;;;;28.67;12.15;;;;;;;3.15;54.85;100348.06;5015949;28;20053;-80
2022/03/05 04:22:54;;;;;;;24.10;11.30;;;;;;;3.15;54.71;100347.22;5019220;28;20052;-80
2022/03/05 04:25:21;;;;;;;25.02;11.80;;;;;;;3.14;54.80;100350.78;5008596;28;20512;-81
2022/03/05 04:27:48;;;;;;;25.23;11.63;;;;;;;3.09;55.33;100350.16;5009854;28;20524;-81
2022/03/05 04:30:15;;;;;;;29.55;12.73;;;;;;;3.09;55.29;100344.91;5018080;28;20047;-80
2022/03/05 04:32:43;;;;;;;25.02;12.18;;;;;;;3.08;55.26;100346.69;5020790;28;20045;-81
2022/03/05 04:35:10;;;;;;;26.55;13.13;;;;;;;3.09;55.41;100342.28;5019117;28;20053;-81
2022/03/05 04:37:37;;;;;;;27.48;13.00;;;;;;;3.08;55.51;100349.31;5032886;28;20079;-80
2022/03/05 04:40:05;;;;;;;27.55;12.55;;;;;;;3.09;55.34;100347.53;5015301;28;20063;-80
2022/03/05 04:42:32;;;;;;;25.20;12.05;;;;;;;3.10;55.44;100355.31;5033409;28;20052;-80
2022/03/05 04:44:59;;;;;;;24.38;10.45;;;;;;;3.09;55.38;100352.78;5009052;28;20045;-81
2022/03/05 04:47:26;;;;;;;25.05;12.32;;;;;;;3.08;55.16;100345.81;5004583;28;20099;-81
2022/03/05 04:49:53;;;;;;;23.90;12.45;;;;;;;3.09;55.40;100355.41;5025551;28;20048;-80
2022/03/05 04:52:19;;;;;;;24.60;11.05;;;;;;;3.03;55.01;100356.56;5019428;28;20040;-82
2022/03/05 04:54:46;;;;;;;29.00;12.80;;;;;;;3.01;55.23;100354.00;5004462;28;20091;-80
2022/03/05 04:57:13;;;;;;;25.75;11.45;;;;;;;3.00;55.76;100347.06;4998953;28;20045;-80
2022/03/05 04:59:40;;;;;;;27.63;12.43;;;;;;;2.99;55.42;100355.00;5002169;28;20049;-80
2022/03/05 05:02:06;;;;;;;27.73;12.55;;;;;;;2.98;55.80;100353.31;5029866;28;20545;-80
2022/03/05 05:04:34;;;;;;;25.50;12.75;;;;;;;2.97;55.23;100356.84;5023189;28;20060;-80
2022/03/05 05:07:01;;;;;;;31.20;13.25;;;;;;;2.92;55.44;100349.19;5019714;28;20227;-81
2022/03/05 05:09:28;;;;;;;26.30;12.25;;;;;;;2.90;55.44;100358.06;4995581;28;20067;-81
2022/03/05 05:11:55;;;;;;;23.55;12.00;;;;;;;2.93;55.79;100352.69;5024538;28;20447;-81
2022/03/05 05:14:22;;;;;;;28.38;12.77;;;;;;;2.87;55.61;100366.09;5007948;28;20504;-80
2022/03/05 05:16:49;;;;;;;26.92;12.18;;;;;;;2.88;55.65;100371.28;5027622;28;20054;-80
2022/03/05 05:19:25;;;;;;;28.40;12.63;;;;;;;2.88;55.60;100367.81;5019707;28;20045;-80
2022/03/05 05:21:53;;;;;;;34.03;14.40;;;;;;;2.85;55.45;100373.16;5038465;28;20539;-80
2022/03/05 05:24:19;;;;;;;27.30;13.02;;;;;;;2.83;55.55;100366.25;5009875;28;20115;-80
2022/03/05 05:26:46;;;;;;;26.20;12.57;;;;;;;2.88;55.74;100370.44;5003702;28;20044;-80
2022/03/05 05:29:13;;;;;;;29.88;12.02;;;;;;;2.84;55.88;100374.94;5007982;28;20048;-81
2022/03/05 05:32:01;;;;;;;24.35;11.77;;;;;;;2.79;55.70;100376.94;5006514;28;20076;-80
2022/03/05 05:34:28;;;;;;;28.92;12.82;;;;;;;2.78;55.91;100385.75;5027876;28;20052;-80
2022/03/05 05:36:54;;;;;;;24.13;12.98;;;;;;;2.81;55.63;100380.34;4993395;28;20045;-82
2022/03/05 05:39:23;;;;;;;26.48;12.35;;;;;;;2.75;55.75;100381.50;5034968;28;20469;-81
2022/03/05 05:41:50;;;;;;;24.55;12.43;;;;;;;2.76;55.69;100377.94;5030458;28;20053;-80
2022/03/05 05:44:17;;;;;;;28.83;13.13;;;;;;;2.71;55.81;100382.56;5023495;28;20565;-81
2022/03/05 05:46:43;;;;;;;24.90;12.50;;;;;;;2.69;55.91;100389.63;5028020;28;20404;-81
2022/03/05 05:49:10;;;;;;;27.70;12.65;;;;;;;2.68;55.88;100382.69;4997875;28;20068;-80
2022/03/05 05:51:38;;;;;;;30.90;13.98;;;;;;;2.69;56.19;100391.41;5008024;28;20075;-81
2022/03/05 05:54:05;;;;;;;24.45;11.95;;;;;;;2.68;55.95;100402.84;5019089;28;20124;-80
2022/03/05 05:56:31;;;;;;;27.15;13.10;;;;;;;2.66;56.06;100394.19;5030735;28;20056;-80
2022/03/05 05:58:58;;;;;;;25.92;12.07;;;;;;;2.60;56.38;100398.78;5004887;28;20056;-80
2022/03/05 06:01:25;;;;;;;30.13;12.30;;;;;;;2.65;56.34;100402.97;5010952;28;20040;-80
2022/03/05 06:03:53;;;;;;;25.80;11.63;;;;;;;2.65;56.24;100406.44;5020538;28;20124;-80
2022/03/05 06:06:21;;;;;;;26.05;11.02;;;;;;;2.64;56.34;100414.38;5015172;28;20124;-80
2022/03/05 06:08:48;;;;;;;28.00;13.50;;;;;;;2.64;56.31;100412.59;5019637;28;20503;-80
2022/03/05 06:11:15;;;;;;;31.83;12.82;;;;;;;2.64;56.12;100414.38;5017391;28;20056;-80
2022/03/05 06:13:42;;;;;;;25.75;12.35;;;;;;;2.65;56.44;100418.72;5013351;28;20044;-80
2022/03/05 06:16:12;;;;;;;26.50;13.15;;;;;;;2.61;56.40;100423.22;5009143;28;20053;-81
2022/03/05 06:18:39;;;;;;;27.40;13.38;;;;;;;2.63;56.37;100418.78;5028567;28;20124;-80
2022/03/05 06:21:07;;;;;;;23.38;11.75;;;;;;;2.65;56.52;100421.34;5029987;28;20064;-80
2022/03/05 06:23:35;;;;;;;25.65;13.55;;;;;;;2.61;56.33;100425.84;4997474;28;20122;-80
2022/03/05 06:26:02;;;;;;;28.15;13.00;;;;;;;2.61;56.42;100425.84;5017843;28;20053;-82
2022/03/05 06:28:29;;;;;;;26.55;13.32;;;;;;;2.60;56.30;100430.25;5017891;28;20049;-80
2022/03/05 06:30:56;;;;;;;29.55;14.20;;;;;;;2.63;56.34;100439.75;5012156;28;20041;-81
2022/03/05 06:33:23;;;;;;;28.27;12.23;;;;;;;2.60;56.25;100434.66;5016957;28;20056;-81
2022/03/05 06:35:50;;;;;;;29.90;13.40;;;;;;;2.62;56.37;100430.19;4999221;28;20044;-80
2022/03/05 06:38:17;;;;;;;28.05;13.65;;;;;;;2.61;56.43;100436.34;5033093;28;20511;-80
2022/03/05 06:40:45;;;;;;;28.83;14.75;;;;;;;2.56;56.64;100441.78;5026123;28;20049;-81
2022/03/05 06:43:13;;;;;;;27.80;13.52;;;;;;;2.58;56.67;100453.06;5038011;28;20052;-80
2022/03/05 06:45:43;;;;;;;27.83;13.55;;;;;;;2.58;56.42;100446.97;5026793;28;20575;-80
2022/03/05 06:48:10;;;;;;;27.38;13.07;;;;;;;2.56;56.43;100448.81;5019788;28;20057;-81
2022/03/05 06:50:38;;;;;;;29.95;14.35;;;;;;;2.58;56.71;100452.22;5020984;28;20395;-81
2022/03/05 06:53:05;;;;;;;27.42;13.13;;;;;;;2.53;56.74;100460.28;5026500;28;20075;-80
2022/03/05 06:55:33;;;;;;;32.33;14.57;;;;;;;2.52;56.38;100449.84;5037869;28;20041;-80
2022/03/05 06:58:00;;;;;;;31.77;13.27;;;;;;;2.48;56.66;100462.25;4989007;28;22543;-81
2022/03/05 07:00:26;;;;;;;28.02;13.52;;;;;;;2.49;56.65;100453.47;5032522;28;20055;-81
2022/03/05 07:02:54;;;;;;;30.67;14.05;;;;;;;2.39;57.12;100457.41;5020929;28;20216;-80
2022/03/05 07:05:21;;;;;;;30.88;13.65;;;;;;;2.45;56.62;100467.66;5018185;28;20065;-80
2022/03/05 07:07:49;;;;;;;29.45;14.00;;;;;;;2.42;57.03;100462.56;5018278;28;20048;-80
2022/03/05 07:10:16;;;;;;;28.60;14.13;;;;;;;2.45;56.96;100462.41;4995060;28;20037;-80
2022/03/05 07:12:43;;;;;;;34.75;13.95;;;;;;;2.24;58.33;100458.97;5021079;28;20127;-80
2022/03/05 07:15:10;;;;;;;30.60;13.35;;;;;;;2.30;57.98;100463.94;5012264;28;20099;-80
2022/03/05 07:17:37;;;;;;;30.30;14.13;;;;;;;2.36;57.57;100463.66;5004583;28;20089;-80
2022/03/05 07:20:04;;;;;;;32.60;13.90;;;;;;;2.39;57.25;100463.53;5025785;28;20072;-81
2022/03/05 07:22:31;;;;;;;28.33;13.45;;;;;;;2.36;57.47;100468.91;5008823;28;20048;-81
2022/03/05 07:24:58;;;;;;;29.23;13.95;;;;;;;2.38;57.89;100468.84;5012402;28;20041;-80
2022/03/05 07:27:25;;;;;;;29.02;14.07;;;;;;;2.38;57.56;100456.59;4991912;28;20419;-80
2022/03/05 07:29:51;;;;;;;29.30;14.48;;;;;;;2.36;57.56;100458.41;5005910;28;20445;-81
2022/03/05 07:32:18;;;;;;;29.48;14.23;;;;;;;2.40;57.29;100453.91;5013863;28;20048;-80
2022/03/05 07:34:45;;;;;;;32.08;14.50;;;;;;;2.41;57.53;100454.75;5020093;28;20048;-80
2022/03/05 07:37:11;;;;;;;25.35;13.77;;;;;;;2.46;57.55;100448.38;5024949;28;20055;-81
2022/03/05 07:39:39;;;;;;;30.20;14.10;;;;;;;2.27;58.65;100450.13;5035757;28;20053;-80
2022/03/05 07:42:07;;;;;;;30.58;14.38;;;;;;;2.42;57.49;100453.81;5023255;28;20601;-80
2022/03/05 07:44:35;;;;;;;31.80;14.15;;;;;;;2.39;58.02;100453.06;4994700;28;20051;-80
2022/03/05 07:47:02;;;;;;;32.20;15.75;;;;;;;2.41;57.81;100455.59;5018995;28;20549;-80
2022/03/05 07:49:30;;;;;;;29.35;13.93;;;;;;;2.32;58.10;100454.25;5023496;28;20950;-80
2022/03/05 07:51:57;;;;;;;30.10;13.93;;;;;;;2.32;58.16;100462.09;5018158;28;20499;-80
2022/03/05 07:54:24;;;;;;;36.50;16.02;;;;;;;2.29;58.28;100457.00;5031953;28;20523;-81
2022/03/05 07:56:51;;;;;;;33.08;14.68;;;;;;;2.24;59.15;100464.22;5009729;28;20110;-80
2022/03/05 07:59:18;;;;;;;30.08;14.05;;;;;;;2.31;59.30;100463.00;5020203;28;20048;-80
2022/03/05 08:01:45;;;;;;;33.33;14.52;;;;;;;2.53;58.75;100465.53;5019567;28;20105;-81
2022/03/05 08:04:13;;;;;;;28.30;13.30;;;;;;;2.28;59.11;100468.38;5027845;28;20175;-80
2022/03/05 08:06:40;;;;;;;30.65;14.88;;;;;;;2.36;59.29;100468.06;5033007;28;20037;-80
2022/03/05 08:09:07;;;;;;;30.77;14.18;;;;;;;2.35;59.00;100467.22;5036182;28;20041;-80
2022/03/05 08:11:33;;;;;;;28.58;14.30;;;;;;;2.34;59.28;100473.38;5025229;28;20614;-80
2022/03/05 08:14:00;;;;;;;29.58;14.02;;;;;;;2.26;59.54;100472.84;5000737;28;20445;-80
2022/03/05 08:16:27;;;;;;;26.75;13.70;;;;;;;2.28;59.33;100481.50;5011891;28;20048;-81
2022/03/05 08:19:00;;;;;;;29.67;13.93;;;;;;;2.30;59.34;100474.41;4991423;28;20107;-80
2022/03/05 08:21:27;;;;;;;30.75;14.18;;;;;;;2.35;59.60;100474.22;5004933;28;20103;-80
2022/03/05 08:23:55;;;;;;;26.80;13.80;;;;;;;2.26;59.65;100472.00;5012370;28;20052;-80
2022/03/05 08:26:22;;;;;;;29.13;13.32;;;;;;;2.26;59.67;100470.22;5017689;28;20132;-80
2022/03/05 08:28:48;;;;;;;30.98;14.60;;;;;;;2.38;59.29;100474.09;5032576;28;20049;-80
2022/03/05 08:31:15;;;;;;;30.15;13.93;;;;;;;2.36;59.63;100466.28;5035943;28;20049;-81
2022/03/05 08:33:42;;;;;;;29.70;13.48;;;;;;;2.47;59.28;100464.94;5022057;28;20044;-81
2022/03/05 08:36:09;;;;;;;30.42;14.27;;;;;;;2.51;59.19;100466.53;5019919;28;20078;-81
2022/03/05 08:38:39;;;;;;;27.52;13.95;;;;;;;2.56;59.42;100469.78;5003926;28;20037;-80
2022/03/05 08:41:06;;;;;;;24.20;13.02;;;;;;;2.59;59.21;100467.03;5023595;28;20059;-81
2022/03/05 08:43:33;;;;;;;28.05;14.00;;;;;;;2.64;59.15;100459.78;5013035;28;20048;-81
2022/03/05 08:46:01;;;;;;;27.10;12.20;;;;;;;2.68;58.89;100456.13;5022442;28;20052;-81
2022/03/05 08:48:29;;;;;;;23.75;12.48;;;;;;;2.71;58.94;100458.59;5031522;28;20139;-80
2022/03/05 08:50:56;;;;;;;28.20;13.10;;;;;;;2.74;58.94;100457.59;5034264;28;20045;-80
2022/03/05 08:53:23;;;;;;;28.65;14.27;;;;;;;2.75;59.01;100462.78;5013386;28;20049;-81
2022/03/05 08:55:50;;;;;;;28.58;13.77;;;;;;;2.76;59.22;100455.78;5031256;28;20151;-76
2022/03/05 08:58:17;;;;;;;26.52;12.43;;;;;;;2.80;59.19;100446.84;5036226;28;20049;-76
2022/03/05 09:00:47;;;;;;;25.77;13.45;;;;;;;2.84;58.90;100458.88;5020796;28;20056;-76
2022/03/05 09:03:15;;;;;;;25.73;12.63;;;;;;;2.81;58.73;100457.25;5023261;28;20552;-76
2022/03/05 09:05:43;;;;;;;25.13;13.25;;;;;;;2.86;58.85;100450.97;5026818;28;20048;-76
2022/03/05 09:08:10;;;;;;;29.83;13.68;;;;;;;2.87;58.61;100450.03;5033372;28;20047;-76
2022/03/05 09:10:37;;;;;;;25.92;12.50;;;;;;;2.89;58.85;100448.19;5023339;28;20101;-76
2022/03/05 09:13:04;;;;;;;29.45;12.10;;;;;;;2.92;58.69;100456.75;5016337;28;20075;-76
2022/03/05 09:15:31;;;;;;;24.80;12.27;;;;;;;2.97;58.55;100451.28;5048790;28;20063;-76
2022/03/05 09:17:57;;;;;;;25.20;12.27;;;;;;;3.00;58.53;100440.66;5030801;28;20040;-76
2022/03/05 09:20:24;;;;;;;27.02;13.63;;;;;;;3.02;58.34;100447.50;5019134;28;20075;-76
2022/03/05 09:22:51;;;;;;;23.10;12.68;;;;;;;3.06;58.49;100445.63;5035012;28;20044;-76
2022/03/05 09:25:19;;;;;;;24.15;12.32;;;;;;;3.06;58.25;100443.00;5014610;28;20053;-78
2022/03/05 09:27:47;;;;;;;23.65;11.80;;;;;;;3.07;58.17;100443.84;5033529;28;20102;-77
2022/03/05 09:30:13;;;;;;;29.13;12.73;;;;;;;3.11;58.47;100441.00;5031879;28;20080;-77
2022/03/05 09:32:40;;;;;;;28.17;13.57;;;;;;;3.11;58.28;100438.38;5027629;28;20041;-77
2022/03/05 09:35:07;;;;;;;22.45;11.52;;;;;;;3.15;58.00;100431.19;5027749;28;20044;-81
2022/03/05 09:37:34;;;;;;;26.80;11.93;;;;;;;3.15;58.24;100439.91;5017312;28;20045;-77
2022/03/05 09:40:08;;;;;;;26.02;11.90;;;;;;;3.15;57.90;100442.53;5006827;28;20744;-78
2022/03/05 09:42:40;;;;;;;28.42;12.65;;;;;;;3.17;58.01;100438.06;5033366;28;20044;-78
2022/03/05 09:45:07;;;;;;;26.88;12.30;;;;;;;3.23;57.78;100436.91;5017300;28;20045;-78
2022/03/05 09:47:37;;;;;;;26.17;12.23;;;;;;;3.22;57.58;100436.06;5031019;28;20454;-77
2022/03/05 09:50:06;;;;;;;22.35;11.90;;;;;;;3.38;57.23;100438.78;5017957;28;20507;-79
2022/03/05 09:52:36;;;;;;;27.15;12.40;;;;;;;3.27;57.27;100430.59;4999875;28;20124;-79
2022/03/05 09:55:05;;;;;;;22.45;12.88;;;;;;;3.28;57.48;100429.66;4984811;28;20222;-79
2022/03/05 09:57:32;;;;;;;23.02;11.13;;;;;;;3.32;57.15;100418.09;5013733;28;20375;-78
2022/03/05 09:59:59;;;;;;;18.77;9.77;;;;;;;3.42;56.29;100424.59;5007448;28;20094;-78
2022/03/05 10:02:27;;;;;;;20.70;11.25;;;;;;;3.43;56.29;100425.44;5008293;28;20041;-79
2022/03/05 10:05:26;;;;;;;22.15;9.98;;;;;;;3.34;56.52;100428.53;5009516;28;20504;-79
2022/03/05 10:08:12;;;;;;;21.45;9.93;;;;;;;3.38;56.78;100424.81;4994854;28;20692;-78
2022/03/05 10:10:50;;;;;;;19.20;10.73;;;;;;;3.46;56.18;100423.53;5015090;28;20103;-78
2022/03/05 10:13:31;;;;;;;17.92;9.40;;;;;;;3.47;56.66;100427.00;5017653;28;20056;-79
2022/03/05 10:15:59;;;;;;;17.48;9.75;;;;;;;3.51;56.72;100422.44;5015958;28;20504;-78
2022/03/05 10:18:27;;;;;;;19.13;10.10;;;;;;;3.54;56.80;100419.69;5013648;28;20048;-78
2022/03/05 10:20:53;;;;;;;18.35;8.88;;;;;;;3.60;56.32;100425.47;5041262;28;20106;-78
2022/03/05 10:23:20;;;;;;;20.33;10.43;;;;;;;3.59;56.37;100421.16;5023677;28;20036;-78
2022/03/05 10:25:50;;;;;;;21.17;10.07;;;;;;;3.64;56.23;100424.41;5009844;28;20052;-78
2022/03/05 10:28:22;;;;;;;21.67;9.85;;;;;;;3.64;55.75;100427.03;5029022;28;20384;-79
2022/03/05 10:30:51;;;;;;;21.52;9.63;;;;;;;3.64;56.00;100424.41;5017358;28;20045;-78
2022/03/05 10:33:24;;;;;;;20.48;9.35;;;;;;;3.72;54.91;100415.28;5022698;28;20052;-78
2022/03/05 10:35:51;;;;;;;18.77;9.02;;;;;;;3.83;53.77;100413.78;5027301;28;20053;-79
2022/03/05 10:38:18;;;;;;;19.38;9.27;;;;;;;3.77;54.65;100423.78;5023800;28;20041;-79
2022/03/05 10:40:53;;;;;;;17.45;8.63;;;;;;;3.74;54.76;100418.66;5031232;28;20377;-78
2022/03/05 10:43:21;;;;;;;18.05;9.65;;;;;;;3.82;54.38;100408.63;5023139;28;20051;-78
2022/03/05 10:45:58;;;;;;;19.02;8.88;;;;;;;3.79;53.60;100403.50;5035508;28;20107;-82
2022/03/05 10:48:25;;;;;;;16.75;7.85;;;;;;;3.85;53.72;100405.84;5034600;28;20496;-78
2022/03/05 10:51:09;;;;;;;15.27;8.20;;;;;;;3.79;54.06;100399.13;5022193;28;20146;-78
2022/03/05 10:53:36;;;;;;;18.40;8.07;;;;;;;3.80;53.92;100394.72;5021972;28;20107;-78
2022/03/05 10:56:21;;;;;;;14.05;7.22;;;;;;;3.69;52.67;100401.38;5031871;28;20451;-79
2022/03/05 10:59:07;;;;;;;12.63;6.25;;;;;;;3.78;53.45;100396.56;4998915;28;20048;-78
2022/03/05 11:01:39;;;;;;;14.20;7.05;;;;;;;3.87;53.51;100388.22;5000507;28;20409;-78
2022/03/05 11:04:07;;;;;;;15.07;7.53;;;;;;;3.92;53.95;100391.47;5030251;28;20049;-78
2022/03/05 11:06:37;;;;;;;16.38;8.02;;;;;;;3.99;53.95;100395.44;5030134;28;20040;-78
2022/03/05 11:09:06;;;;;;;17.42;8.68;;;;;;;4.03;54.05;100394.38;4995664;28;20122;-78
2022/03/05 11:11:38;;;;;;;15.73;7.82;;;;;;;4.07;53.46;100390.66;4991708;28;20128;-78
2022/03/05 11:14:06;;;;;;;12.38;6.30;;;;;;;4.11;52.63;100388.72;5007297;28;20045;-78
2022/03/05 11:16:33;;;;;;;11.10;6.18;;;;;;;4.08;52.62;100391.50;5033377;28;20581;-78
2022/03/05 11:19:00;;;;;;;12.07;6.53;;;;;;;4.14;52.81;100376.25;5005965;28;20454;-78
2022/03/05 11:21:29;;;;;;;12.48;6.68;;;;;;;4.19;52.46;100383.06;5038901;28;20036;-78
2022/03/05 11:23:58;;;;;;;11.52;5.93;;;;;;;4.27;52.39;100380.84;5010379;28;20099;-78
2022/03/05 11:26:28;;;;;;;8.05;5.13;;;;;;;4.28;51.28;100375.53;5032154;28;20150;-79